Hutton, Maryland
Current Conditions -  °F | °C
As of 4:45 PM on Monday 24 Nov 2014 (Local Time) from K2G4 Reporting Station
Overcast Overcast  
Wind Chill: 15°   Ceiling: 6000
Heat Index: 15°   Visibility: 10mi
Dew Point:   Wind: 15mph
Humidity: 36%   Direction: 240°WSW
Pressure: 29.64"   Gusts: 25mph
Location:  39.3804°N, 79.3888°W
Report Text: K2G4 242145Z AUTO 24013G22KT 10SM BKN060 OVC070 15/00 A2964 RMK AO1
Loading
Personal Weather Stations






























Interactive Weather Map New forecast layout! Learn more

10-Day Weather Forecast

Advertisements
Track Severe Weather on mobile